createdAt,value
2018-08-09T00:01:05.857Z,8.43
2018-08-09T00:03:34.327Z,8.10
2018-08-09T00:06:02.810Z,7.47
2018-08-09T00:08:31.370Z,7.70
2018-08-09T00:11:00.128Z,8.20
2018-08-09T00:13:28.622Z,8.83
2018-08-09T00:15:57.135Z,8.63
2018-08-09T00:18:25.671Z,8.38
2018-08-09T00:20:54.178Z,8.95
2018-08-09T00:23:22.695Z,8.90
2018-08-09T00:25:51.230Z,8.75
2018-08-09T00:28:19.737Z,8.73
2018-08-09T00:30:48.773Z,8.48
2018-08-09T00:33:17.321Z,7.70
2018-08-09T00:35:45.806Z,8.60
2018-08-09T00:38:14.322Z,8.08
2018-08-09T00:40:42.862Z,8.68
2018-08-09T00:43:11.392Z,8.58
2018-08-09T00:45:39.915Z,7.78
2018-08-09T00:48:08.451Z,8.03
2018-08-09T00:50:36.942Z,8.23
2018-08-09T00:53:05.483Z,7.97
2018-08-09T00:55:34.007Z,8.83
2018-08-09T00:58:02.539Z,8.38
2018-08-09T01:00:31.068Z,8.33
2018-08-09T01:02:59.603Z,8.45
2018-08-09T01:05:28.122Z,8.25
2018-08-09T01:07:56.664Z,8.60
2018-08-09T01:10:25.197Z,7.33
2018-08-09T01:12:53.714Z,7.70
2018-08-09T01:15:22.226Z,7.87
2018-08-09T01:17:50.755Z,8.05
2018-08-09T01:20:19.242Z,7.92
2018-08-09T01:22:47.747Z,9.10
2018-08-09T01:25:16.209Z,9.35
2018-08-09T01:27:44.701Z,9.08
2018-08-09T01:30:13.205Z,8.38
2018-08-09T01:32:41.699Z,8.63
2018-08-09T01:35:10.238Z,8.85
2018-08-09T01:37:38.729Z,8.53
2018-08-09T01:40:07.783Z,8.98
2018-08-09T01:42:47.393Z,9.23
2018-08-09T01:45:15.911Z,10.75
2018-08-09T01:47:44.415Z,10.20
2018-08-09T01:50:12.901Z,10.75
2018-08-09T01:52:41.366Z,9.90
2018-08-09T01:55:09.866Z,10.40
2018-08-09T01:57:38.349Z,11.33
2018-08-09T02:00:07.265Z,11.75
2018-08-09T02:02:35.770Z,13.05
2018-08-09T02:05:04.838Z,11.28
2018-08-09T02:07:33.329Z,11.45
2018-08-09T02:10:01.834Z,11.73
2018-08-09T02:12:30.299Z,11.73
2018-08-09T02:14:58.842Z,9.93
2018-08-09T02:17:27.321Z,10.10
2018-08-09T02:19:55.919Z,11.38
2018-08-09T02:22:24.436Z,10.80
2018-08-09T02:24:52.969Z,11.57
2018-08-09T02:27:21.452Z,11.33
2018-08-09T02:29:49.966Z,10.65
2018-08-09T02:32:18.469Z,10.98
2018-08-09T02:34:46.983Z,9.68
2018-08-09T02:37:15.491Z,9.53
2018-08-09T02:39:44.062Z,10.08
2018-08-09T02:42:12.554Z,9.80
2018-08-09T02:44:41.103Z,9.70
2018-08-09T02:47:09.639Z,10.10
2018-08-09T02:49:38.174Z,10.50
2018-08-09T02:52:06.678Z,9.85
2018-08-09T02:54:35.215Z,10.10
2018-08-09T02:57:03.731Z,10.10
2018-08-09T02:59:32.302Z,9.95
2018-08-09T03:02:00.807Z,9.10
2018-08-09T03:04:29.354Z,10.82
2018-08-09T03:06:57.856Z,10.05
2018-08-09T03:09:26.385Z,10.60
2018-08-09T03:11:54.908Z,9.85
2018-08-09T03:14:23.915Z,10.18
2018-08-09T03:16:52.417Z,10.25
2018-08-09T03:19:20.939Z,9.78
2018-08-09T03:21:49.423Z,10.58
2018-08-09T03:24:18.039Z,10.48
2018-08-09T03:26:46.510Z,9.85
2018-08-09T03:29:14.982Z,10.70
2018-08-09T03:31:43.467Z,10.98
2018-08-09T03:34:11.938Z,9.95
2018-08-09T03:36:40.900Z,9.25
2018-08-09T03:39:11.074Z,9.93
2018-08-09T03:41:39.649Z,9.68
2018-08-09T03:44:08.234Z,9.85
2018-08-09T03:46:37.087Z,9.55
2018-08-09T03:49:05.627Z,9.68
2018-08-09T03:51:34.155Z,9.78
2018-08-09T03:54:02.646Z,9.68
2018-08-09T03:56:31.139Z,9.48
2018-08-09T03:58:59.602Z,9.80
2018-08-09T04:01:28.125Z,10.98
2018-08-09T04:03:56.654Z,10.72
2018-08-09T04:06:25.825Z,10.15
2018-08-09T04:08:54.330Z,10.43
2018-08-09T04:11:22.822Z,9.65
2018-08-09T04:13:51.306Z,9.95
2018-08-09T04:16:19.811Z,10.35
2018-08-09T04:18:48.775Z,10.18
2018-08-09T04:21:17.306Z,10.75
2018-08-09T04:23:45.785Z,10.68
2018-08-09T04:26:14.306Z,9.68
2018-08-09T04:28:42.802Z,9.65
2018-08-09T04:31:11.296Z,10.98
2018-08-09T04:33:39.765Z,10.93
2018-08-09T04:36:08.270Z,10.55
2018-08-09T04:38:36.747Z,9.53
2018-08-09T04:41:05.281Z,10.03
2018-08-09T04:43:33.746Z,9.38
2018-08-09T04:46:02.279Z,9.28
2018-08-09T04:48:30.754Z,9.00
2018-08-09T04:50:59.271Z,9.53
2018-08-09T04:53:27.739Z,9.00
2018-08-09T04:55:56.239Z,9.45
2018-08-09T04:58:24.755Z,8.53
2018-08-09T05:00:53.382Z,8.10
2018-08-09T05:03:21.862Z,8.53
2018-08-09T05:05:50.357Z,8.18
2018-08-09T05:08:18.831Z,8.30
2018-08-09T05:10:47.375Z,7.15
2018-08-09T05:13:15.860Z,7.58
2018-08-09T05:15:44.358Z,7.25
2018-08-09T05:18:12.852Z,6.78
2018-08-09T05:20:41.377Z,6.70
2018-08-09T05:23:09.960Z,6.08
2018-08-09T05:25:38.437Z,6.40
2018-08-09T05:28:07.087Z,5.55
2018-08-09T05:30:35.602Z,5.67
2018-08-09T05:33:04.300Z,6.25
2018-08-09T05:35:32.786Z,5.28
2018-08-09T05:38:01.297Z,5.75
2018-08-09T05:40:29.799Z,5.33
2018-08-09T05:42:58.308Z,5.40
2018-08-09T05:45:26.811Z,4.65
2018-08-09T05:47:55.306Z,5.33
2018-08-09T05:50:23.779Z,5.08
2018-08-09T05:52:52.340Z,4.92
2018-08-09T05:55:20.823Z,5.53
2018-08-09T05:57:49.346Z,5.62
2018-08-09T06:00:17.856Z,5.05
2018-08-09T06:02:46.367Z,5.12
2018-08-09T06:05:14.840Z,4.22
2018-08-09T06:07:43.430Z,4.40
2018-08-09T06:10:11.906Z,4.47
2018-08-09T06:12:40.435Z,4.35
2018-08-09T06:15:08.939Z,4.30
2018-08-09T06:17:37.470Z,4.03
2018-08-09T06:20:06.286Z,3.98
2018-08-09T06:22:34.840Z,3.98
2018-08-09T06:25:03.458Z,3.70
2018-08-09T06:27:32.016Z,3.90
2018-08-09T06:30:00.556Z,4.15
2018-08-09T06:32:29.127Z,3.85
2018-08-09T06:34:57.634Z,4.58
2018-08-09T06:37:26.183Z,3.65
2018-08-09T06:39:54.678Z,4.12
2018-08-09T06:42:23.179Z,4.28
2018-08-09T06:44:51.713Z,3.47
2018-08-09T06:47:20.275Z,4.08
2018-08-09T06:49:48.773Z,3.58
2018-08-09T06:52:17.274Z,3.90
2018-08-09T06:54:45.737Z,3.62
2018-08-09T06:57:14.225Z,3.12
2018-08-09T06:59:42.708Z,3.90
2018-08-09T07:02:11.280Z,3.05
2018-08-09T07:04:39.755Z,3.40
2018-08-09T07:07:08.271Z,3.62
2018-08-09T07:09:36.786Z,3.37
2018-08-09T07:12:05.322Z,3.50
2018-08-09T07:14:33.797Z,3.75
2018-08-09T07:17:02.385Z,3.08
2018-08-09T07:19:30.879Z,3.45
2018-08-09T07:21:59.385Z,3.20
2018-08-09T07:24:27.993Z,3.50
2018-08-09T07:26:56.462Z,3.42
2018-08-09T07:29:24.977Z,3.37
2018-08-09T07:31:53.455Z,3.25
2018-08-09T07:34:21.958Z,3.17
2018-08-09T07:36:50.486Z,3.17
2018-08-09T07:39:19.020Z,3.55
2018-08-09T07:41:47.551Z,3.15
2018-08-09T07:44:16.053Z,3.42
2018-08-09T07:46:44.537Z,3.58
2018-08-09T07:49:13.030Z,3.20
2018-08-09T07:51:41.546Z,3.00
2018-08-09T07:54:10.083Z,3.00
2018-08-09T07:56:38.569Z,3.30
2018-08-09T07:59:07.134Z,3.27
2018-08-09T08:01:35.619Z,3.10
2018-08-09T08:04:04.199Z,3.02
2018-08-09T08:06:32.723Z,3.05
2018-08-09T08:09:01.219Z,2.58
2018-08-09T08:11:29.719Z,2.80
2018-08-09T08:13:58.222Z,3.12
2018-08-09T08:16:26.724Z,2.80
2018-08-09T08:18:55.306Z,2.60
2018-08-09T08:21:23.868Z,2.60
2018-08-09T08:23:52.395Z,2.45
2018-08-09T08:26:20.899Z,2.20
2018-08-09T08:28:49.426Z,2.50
2018-08-09T08:31:17.967Z,3.15
2018-08-09T08:33:46.577Z,2.42
2018-08-09T08:36:15.166Z,2.52
2018-08-09T08:38:43.678Z,2.87
2018-08-09T08:41:12.210Z,2.70
2018-08-09T08:43:40.819Z,2.75
2018-08-09T08:46:09.361Z,2.52
2018-08-09T08:48:37.870Z,2.50
2018-08-09T08:51:06.412Z,2.83
2018-08-09T08:53:34.998Z,2.10
2018-08-09T08:56:03.570Z,2.40
2018-08-09T08:58:32.090Z,2.33
2018-08-09T09:01:00.675Z,2.55
2018-08-09T09:03:29.203Z,2.70
2018-08-09T09:05:57.724Z,2.80
2018-08-09T09:08:26.290Z,2.70
2018-08-09T09:10:58.070Z,2.95
2018-08-09T09:13:26.694Z,2.67
2018-08-09T09:15:55.207Z,3.27
2018-08-09T09:18:23.808Z,2.90
2018-08-09T09:20:52.305Z,2.92
2018-08-09T09:23:20.847Z,3.37
2018-08-09T09:25:49.354Z,2.70
2018-08-09T09:28:17.890Z,3.00
2018-08-09T09:30:46.411Z,2.95
2018-08-09T09:33:14.931Z,3.02
2018-08-09T09:35:43.438Z,3.10
2018-08-09T09:38:11.963Z,3.30
2018-08-09T09:40:40.470Z,3.80
2018-08-09T09:43:09.005Z,3.40
2018-08-09T09:45:37.531Z,2.92
2018-08-09T09:48:06.325Z,2.90
2018-08-09T09:50:34.888Z,3.30
2018-08-09T09:53:03.430Z,2.98
2018-08-09T09:55:31.991Z,3.00
2018-08-09T09:58:00.498Z,3.45
2018-08-09T10:00:33.230Z,3.22
2018-08-09T10:03:01.732Z,3.27
2018-08-09T10:05:30.288Z,3.60
2018-08-09T10:07:58.788Z,3.33
2018-08-09T10:10:27.355Z,3.25
2018-08-09T10:12:55.840Z,2.98
2018-08-09T10:15:24.389Z,3.62
2018-08-09T10:17:52.888Z,3.35
2018-08-09T10:20:21.435Z,3.50
2018-08-09T10:22:49.934Z,3.70
2018-08-09T10:36:44.264Z,3.20
2018-08-09T10:39:12.930Z,3.70
2018-08-09T10:41:41.447Z,3.15
2018-08-09T10:44:09.954Z,3.30
2018-08-09T10:46:38.497Z,3.00
2018-08-09T10:49:07.202Z,3.12
2018-08-09T10:51:35.750Z,3.27
2018-08-09T10:54:04.264Z,3.10
2018-08-09T10:56:32.800Z,3.42
2018-08-09T10:59:01.283Z,3.40
2018-08-09T11:01:29.797Z,3.30
2018-08-09T11:03:58.299Z,3.40
2018-08-09T11:06:26.818Z,2.92
2018-08-09T11:08:55.315Z,3.22
2018-08-09T11:11:23.804Z,3.22
2018-08-09T11:13:52.286Z,3.47
2018-08-09T11:16:20.812Z,3.62
2018-08-09T11:18:49.302Z,4.10
2018-08-09T11:21:17.827Z,3.42
2018-08-09T11:23:46.343Z,3.10
2018-08-09T11:26:14.850Z,2.95
2018-08-09T11:28:43.323Z,3.15
2018-08-09T11:31:11.818Z,3.52
2018-08-09T11:33:40.296Z,2.90
2018-08-09T11:36:08.774Z,3.20
2018-08-09T11:38:37.284Z,3.35
2018-08-09T11:41:05.827Z,3.27
2018-08-09T11:43:34.313Z,3.37
2018-08-09T11:46:02.810Z,3.35
2018-08-09T11:48:31.278Z,3.30
2018-08-09T11:50:59.773Z,3.40
2018-08-09T11:53:28.243Z,3.80
2018-08-09T11:55:56.724Z,3.67
2018-08-09T11:58:25.219Z,3.40
2018-08-09T12:00:53.751Z,3.05
2018-08-09T12:03:22.247Z,3.50
2018-08-09T12:05:50.731Z,3.15
2018-08-09T12:08:19.220Z,3.35
2018-08-09T12:10:47.727Z,3.42
2018-08-09T12:13:16.238Z,3.60
2018-08-09T12:15:44.813Z,3.62
2018-08-09T12:18:13.319Z,3.40
2018-08-09T12:20:42.258Z,2.87
2018-08-09T12:23:10.714Z,2.77
2018-08-09T12:25:39.282Z,3.72
2018-08-09T12:28:08.234Z,3.52
2018-08-09T12:30:36.754Z,3.45
2018-08-09T12:33:05.379Z,3.58
2018-08-09T12:35:33.967Z,3.05
2018-08-09T12:38:02.500Z,3.70
2018-08-09T12:40:31.049Z,3.15
2018-08-09T12:42:59.607Z,2.85
2018-08-09T12:45:28.211Z,3.10
2018-08-09T12:47:56.660Z,3.27
2018-08-09T12:50:25.220Z,2.87
2018-08-09T12:52:53.762Z,3.50
2018-08-09T12:55:22.283Z,3.20
2018-08-09T12:57:50.810Z,3.30
2018-08-09T13:00:19.361Z,2.47
2018-08-09T13:02:47.876Z,3.00
2018-08-09T13:05:16.436Z,3.80
2018-08-09T13:07:44.974Z,2.87
2018-08-09T13:10:14.173Z,3.15
2018-08-09T13:12:42.740Z,3.10
2018-08-09T13:15:13.053Z,2.98
2018-08-09T13:17:42.456Z,3.02
2018-08-09T13:20:13.490Z,2.92
2018-08-09T13:22:42.082Z,3.27
2018-08-09T13:25:10.600Z,2.70
2018-08-09T13:27:39.263Z,2.80
2018-08-09T13:30:10.439Z,3.00
2018-08-09T13:32:38.995Z,2.60
2018-08-09T13:35:08.049Z,2.80
2018-08-09T13:37:36.583Z,2.77
2018-08-09T13:40:06.610Z,2.92
2018-08-09T13:42:35.126Z,2.90
2018-08-09T13:45:03.775Z,2.72
2018-08-09T13:47:32.277Z,3.20
2018-08-09T13:50:00.764Z,3.08
2018-08-09T13:52:29.267Z,3.15
2018-08-09T13:54:57.753Z,3.20
2018-08-09T13:57:26.287Z,3.08
2018-08-09T13:59:54.784Z,3.08
2018-08-09T14:02:23.310Z,3.30
2018-08-09T14:04:51.809Z,3.10
2018-08-09T14:07:20.338Z,2.55
2018-08-09T14:09:48.822Z,2.75
2018-08-09T14:12:17.315Z,3.02
2018-08-09T14:14:45.845Z,2.75
2018-08-09T14:17:14.349Z,3.00
2018-08-09T14:19:42.870Z,3.00
2018-08-09T14:22:11.401Z,3.00
2018-08-09T14:24:39.977Z,2.72
2018-08-09T14:27:08.427Z,2.90
2018-08-09T14:29:36.975Z,3.05
2018-08-09T14:32:05.563Z,2.98
2018-08-09T14:34:34.122Z,3.15
2018-08-09T14:37:02.634Z,3.37
2018-08-09T14:39:31.168Z,3.10
2018-08-09T14:41:59.772Z,2.80
2018-08-09T14:44:28.227Z,2.58
2018-08-09T14:46:56.721Z,2.95
2018-08-09T14:49:25.231Z,2.65
2018-08-09T14:51:53.786Z,2.75
2018-08-09T14:54:22.347Z,2.55
2018-08-09T14:56:50.861Z,2.85
2018-08-09T14:59:19.429Z,3.25
2018-08-09T15:01:47.931Z,3.05
2018-08-09T15:04:16.419Z,2.95
2018-08-09T15:06:44.931Z,3.10
2018-08-09T15:09:13.494Z,2.90
2018-08-09T15:11:42.264Z,3.10
2018-08-09T15:14:11.149Z,2.92
2018-08-09T15:16:39.684Z,2.87
2018-08-09T15:19:08.272Z,3.12
2018-08-09T15:21:37.088Z,2.75
2018-08-09T15:24:05.615Z,2.83
2018-08-09T15:26:34.142Z,2.85
2018-08-09T15:29:02.650Z,3.02
2018-08-09T15:31:31.120Z,3.15
2018-08-09T15:33:59.651Z,3.02
2018-08-09T15:36:28.131Z,2.92
2018-08-09T15:38:56.622Z,2.55
2018-08-09T15:41:25.126Z,3.08
2018-08-09T15:43:53.620Z,3.37
2018-08-09T15:46:22.146Z,2.90
2018-08-09T15:48:50.634Z,3.33
2018-08-09T15:51:19.130Z,2.90
2018-08-09T15:53:47.623Z,2.85
2018-08-09T15:56:16.086Z,2.77
2018-08-09T15:58:44.602Z,3.08
2018-08-09T16:01:13.089Z,2.83
2018-08-09T16:03:41.587Z,2.70
2018-08-09T16:06:10.479Z,2.90
2018-08-09T16:08:38.990Z,3.40
2018-08-09T16:11:07.487Z,2.98
2018-08-09T16:13:35.974Z,2.85
2018-08-09T16:16:04.813Z,3.30
2018-08-09T16:18:33.360Z,3.40
2018-08-09T16:21:01.835Z,3.12
2018-08-09T16:23:30.296Z,3.30
2018-08-09T16:25:58.810Z,2.55
2018-08-09T16:28:27.305Z,2.90
2018-08-09T16:30:55.771Z,3.17
2018-08-09T16:33:24.254Z,3.37
2018-08-09T16:35:52.738Z,3.10
2018-08-09T16:38:21.251Z,3.33
2018-08-09T16:40:50.190Z,2.98
2018-08-09T16:43:18.700Z,3.08
2018-08-09T16:45:47.223Z,3.12
2018-08-09T16:48:15.696Z,3.47
2018-08-09T16:50:44.231Z,3.33
2018-08-09T16:53:12.702Z,3.27
2018-08-09T16:55:41.188Z,2.92
2018-08-09T16:58:09.677Z,3.05
2018-08-09T17:00:38.143Z,3.05
2018-08-09T17:03:06.688Z,3.25
2018-08-09T17:05:35.238Z,3.67
2018-08-09T17:08:03.780Z,3.37
2018-08-09T17:10:32.281Z,3.22
2018-08-09T17:13:00.772Z,3.10
2018-08-09T17:15:29.823Z,3.10
2018-08-09T17:17:58.986Z,2.83
2018-08-09T17:20:29.899Z,4.08
2018-08-09T17:22:58.805Z,4.15
2018-08-09T17:25:27.858Z,4.28
2018-08-09T17:27:56.387Z,4.05
2018-08-09T17:30:26.291Z,3.75
2018-08-09T17:32:55.163Z,4.10
2018-08-09T17:35:23.761Z,3.80
2018-08-09T17:37:52.495Z,3.62
2018-08-09T17:40:22.991Z,3.90
2018-08-09T17:42:52.555Z,3.80
2018-08-09T17:45:23.070Z,3.70
2018-08-09T17:47:51.611Z,3.80
2018-08-09T17:50:20.186Z,3.92
2018-08-09T17:52:49.602Z,3.67
2018-08-09T17:55:18.143Z,3.55
2018-08-09T17:57:47.215Z,3.40
2018-08-09T18:00:18.673Z,3.42
2018-08-09T18:02:47.249Z,3.98
2018-08-09T18:05:15.869Z,4.03
2018-08-09T18:07:44.435Z,3.42
2018-08-09T18:10:16.406Z,3.08
2018-08-09T18:12:45.086Z,3.80
2018-08-09T18:15:13.911Z,3.22
2018-08-09T18:17:42.458Z,3.25
2018-08-09T18:20:14.454Z,3.02
2018-08-09T18:22:43.618Z,3.58
2018-08-09T18:25:13.247Z,3.10
2018-08-09T18:27:41.810Z,3.60
2018-08-09T18:30:14.638Z,3.25
2018-08-09T18:32:43.224Z,3.52
2018-08-09T18:35:13.253Z,4.20
2018-08-09T18:37:41.854Z,3.27
2018-08-09T18:40:14.246Z,3.30
2018-08-09T18:42:42.815Z,3.72
2018-08-09T18:45:11.721Z,3.65
2018-08-09T18:47:40.580Z,2.90
2018-08-09T18:50:14.354Z,3.72
2018-08-09T18:52:43.161Z,3.35
2018-08-09T18:55:12.922Z,3.85
2018-08-09T18:57:41.447Z,3.25
2018-08-09T19:00:15.210Z,3.15
2018-08-09T19:02:44.418Z,3.10
2018-08-09T19:05:13.019Z,3.08
2018-08-09T19:07:41.829Z,3.42
2018-08-09T19:10:13.178Z,3.00
2018-08-09T19:12:41.704Z,3.33
2018-08-09T19:15:11.519Z,3.40
2018-08-09T19:17:40.307Z,3.10
2018-08-09T19:20:39.742Z,3.12
2018-08-09T19:23:08.223Z,3.33
2018-08-09T19:25:36.767Z,2.98
2018-08-09T19:28:05.271Z,2.72
2018-08-09T19:30:33.805Z,2.75
2018-08-09T19:33:02.323Z,2.27
2018-08-09T19:35:30.843Z,2.70
2018-08-09T19:37:59.346Z,2.77
2018-08-09T19:40:30.146Z,2.60
2018-08-09T19:42:58.623Z,3.02
2018-08-09T19:45:27.226Z,2.45
2018-08-09T19:47:55.706Z,2.50
2018-08-09T19:50:24.940Z,2.20
2018-08-09T19:52:53.706Z,2.87
2018-08-09T19:55:23.825Z,2.47
2018-08-09T19:57:52.485Z,2.40
2018-08-09T20:00:23.714Z,2.67
2018-08-09T20:02:52.336Z,2.22
2018-08-09T20:05:20.999Z,2.37
2018-08-09T20:07:49.591Z,2.70
2018-08-09T20:10:18.214Z,2.12
2018-08-09T20:12:47.717Z,2.85
2018-08-09T20:15:18.220Z,2.30
2018-08-09T20:17:46.973Z,2.35
2018-08-09T20:20:16.991Z,2.37
2018-08-09T20:22:45.573Z,2.00
2018-08-09T20:25:14.584Z,2.02
2018-08-09T20:27:43.686Z,2.45
2018-08-09T20:30:14.014Z,2.50
2018-08-09T20:32:43.093Z,2.20
2018-08-09T20:35:13.287Z,3.00
2018-08-09T20:37:42.766Z,2.70
2018-08-09T20:40:12.071Z,2.12
2018-08-09T20:42:41.030Z,2.40
2018-08-09T20:45:11.326Z,2.52
2018-08-09T20:47:39.866Z,2.50
2018-08-09T20:50:12.788Z,2.42
2018-08-09T20:52:42.346Z,2.52
2018-08-09T20:55:11.208Z,2.20
2018-08-09T20:57:40.826Z,3.00
2018-08-09T21:00:14.024Z,2.70
2018-08-09T21:02:43.341Z,3.10
2018-08-09T21:05:16.602Z,2.42
2018-08-09T21:07:45.150Z,2.35
2018-08-09T21:10:13.965Z,2.75
2018-08-09T21:12:42.674Z,3.15
2018-08-09T21:15:11.316Z,2.55
2018-08-09T21:17:40.347Z,2.70
2018-08-09T21:20:09.031Z,2.33
2018-08-09T21:22:37.674Z,2.55
2018-08-09T21:25:07.454Z,2.72
2018-08-09T21:27:36.114Z,2.80
2018-08-09T21:30:06.243Z,2.65
2018-08-09T21:32:34.886Z,2.90
2018-08-09T21:35:03.491Z,2.25
2018-08-09T21:37:32.003Z,2.52
2018-08-09T21:40:00.492Z,2.50
2018-08-09T21:42:29.681Z,3.08
2018-08-09T21:44:58.257Z,2.87
2018-08-09T21:47:26.882Z,2.52
2018-08-09T21:49:55.451Z,2.35
2018-08-09T21:52:23.950Z,2.90
2018-08-09T21:54:52.536Z,2.67
2018-08-09T21:57:21.061Z,2.72
2018-08-09T21:59:49.487Z,2.22
2018-08-09T22:02:18.070Z,2.80
2018-08-09T22:04:51.802Z,2.52
2018-08-09T22:07:25.770Z,2.58
2018-08-09T22:09:59.659Z,2.40
2018-08-09T22:12:33.595Z,2.47
2018-08-09T22:15:07.448Z,2.50
2018-08-09T22:17:41.104Z,2.67
2018-08-09T22:20:14.747Z,3.17
2018-08-09T22:22:43.481Z,2.65
2018-08-09T22:25:12.020Z,2.47
2018-08-09T22:27:40.831Z,2.47
2018-08-09T22:30:13.351Z,2.70
2018-08-09T22:32:41.899Z,2.95
2018-08-09T22:35:13.878Z,2.80
2018-08-09T22:37:42.494Z,3.33
2018-08-09T22:40:11.225Z,2.70
2018-08-09T22:42:39.864Z,2.58
2018-08-09T22:45:08.406Z,2.77
2018-08-09T22:47:37.014Z,2.67
2018-08-09T22:50:05.679Z,2.87
2018-08-09T22:52:34.212Z,2.33
2018-08-09T22:55:02.831Z,2.35
2018-08-09T22:57:31.323Z,2.70
2018-08-09T22:59:59.866Z,2.55
2018-08-09T23:02:28.398Z,2.45
2018-08-09T23:04:56.933Z,2.50
2018-08-09T23:07:25.536Z,2.42
2018-08-09T23:09:54.037Z,2.52
2018-08-09T23:12:22.510Z,2.25
2018-08-09T23:14:51.021Z,2.40
2018-08-09T23:17:19.498Z,2.50
2018-08-09T23:19:48.060Z,2.55
2018-08-09T23:22:19.816Z,3.12
2018-08-09T23:24:48.373Z,2.83
2018-08-09T23:27:16.842Z,2.42
2018-08-09T23:29:45.515Z,2.80
2018-08-09T23:32:14.043Z,2.20
2018-08-09T23:34:42.516Z,2.70
2018-08-09T23:37:11.052Z,2.72
2018-08-09T23:39:39.568Z,2.67
2018-08-09T23:42:08.078Z,2.52
2018-08-09T23:44:36.591Z,2.60
2018-08-09T23:47:05.508Z,2.55
2018-08-09T23:49:34.075Z,2.50
2018-08-09T23:52:02.787Z,2.50
2018-08-09T23:54:31.296Z,2.35
2018-08-09T23:56:59.804Z,2.58
2018-08-09T23:59:28.312Z,2.67
